createdAt,value
2019-02-26T00:00:31.802Z,54.93
2019-02-26T00:03:11.901Z,55.04
2019-02-26T00:05:40.451Z,55.16
2019-02-26T00:08:08.954Z,55.27
2019-02-26T00:10:39.104Z,55.34
2019-02-26T00:13:07.707Z,55.40
2019-02-26T00:15:38.130Z,55.47
2019-02-26T00:18:09.441Z,55.51
2019-02-26T00:20:39.053Z,55.53
2019-02-26T00:23:06.846Z,55.49
2019-02-26T00:25:35.638Z,55.47
2019-02-26T00:28:04.161Z,55.50
2019-02-26T00:30:33.952Z,55.47
2019-02-26T00:33:05.174Z,55.51
2019-02-26T00:35:33.471Z,55.57
2019-02-26T00:38:01.962Z,55.57
2019-02-26T00:40:32.631Z,55.49
2019-02-26T00:43:02.555Z,55.38
2019-02-26T00:45:32.330Z,55.26
2019-02-26T00:48:01.276Z,55.24
2019-02-26T00:50:30.405Z,55.16
2019-02-26T00:53:01.764Z,54.96
2019-02-26T00:55:32.044Z,54.78
2019-02-26T00:58:01.056Z,54.66
2019-02-26T01:00:31.385Z,54.70
2019-02-26T01:03:01.467Z,54.86
2019-02-26T01:05:30.994Z,54.99
2019-02-26T01:07:59.471Z,55.20
2019-02-26T01:10:28.372Z,55.33
2019-02-26T01:12:58.575Z,55.43
2019-02-26T01:15:27.257Z,55.39
2019-02-26T01:17:57.156Z,55.43
2019-02-26T01:20:27.513Z,55.46
2019-02-26T01:22:56.205Z,55.48
2019-02-26T01:25:24.679Z,55.49
2019-02-26T01:27:54.086Z,55.45
2019-02-26T01:30:24.329Z,55.47
2019-02-26T01:32:53.583Z,55.54
2019-02-26T01:35:22.507Z,55.61
2019-02-26T01:37:51.473Z,55.47
2019-02-26T01:40:23.536Z,55.34
2019-02-26T01:42:52.889Z,55.24
2019-02-26T01:45:22.354Z,55.24
2019-02-26T01:47:52.828Z,55.28
2019-02-26T01:50:21.367Z,55.32
2019-02-26T01:52:51.713Z,55.31
2019-02-26T01:55:20.704Z,55.23
2019-02-26T01:57:50.186Z,55.17
2019-02-26T02:00:19.416Z,55.21
2019-02-26T02:02:47.933Z,55.32
2019-02-26T02:05:16.763Z,55.35
2019-02-26T02:07:47.227Z,55.39
2019-02-26T02:10:16.154Z,55.42
2019-02-26T02:12:44.714Z,55.44
2019-02-26T02:15:18.246Z,55.54
2019-02-26T02:17:45.500Z,55.57
2019-02-26T02:20:18.069Z,55.70
2019-02-26T02:22:46.022Z,55.77
2019-02-26T02:25:15.540Z,55.91
2019-02-26T02:27:47.544Z,56.09
2019-02-26T02:30:22.951Z,56.21
2019-02-26T02:32:53.701Z,56.29
2019-02-26T02:35:19.261Z,56.31
2019-02-26T02:37:48.315Z,56.41
2019-02-26T02:40:18.496Z,56.60
2019-02-26T02:42:49.175Z,56.64
2019-02-26T02:45:20.704Z,56.66
2019-02-26T02:47:47.563Z,56.66
2019-02-26T02:50:18.305Z,56.75
2019-02-26T02:52:46.274Z,56.79
2019-02-26T02:55:17.180Z,56.87
2019-02-26T02:57:48.663Z,56.82
2019-02-26T03:00:16.888Z,56.89
2019-02-26T03:02:46.484Z,56.85
2019-02-26T03:05:15.736Z,56.87
2019-02-26T03:07:46.045Z,56.89
2019-02-26T03:10:15.346Z,56.88
2019-02-26T03:12:47.640Z,56.87
2019-02-26T03:15:15.985Z,56.86
2019-02-26T03:17:44.579Z,56.87
2019-02-26T03:20:14.156Z,56.88
2019-02-26T03:22:46.136Z,56.99
2019-02-26T03:25:21.129Z,57.01
2019-02-26T03:27:48.006Z,56.73
2019-02-26T03:30:31.864Z,56.44
2019-02-26T03:32:57.667Z,56.08
2019-02-26T03:35:23.324Z,55.79
2019-02-26T03:37:54.317Z,55.59
2019-02-26T03:40:24.258Z,55.48
2019-02-26T03:42:51.727Z,55.31
2019-02-26T03:45:23.689Z,55.23
2019-02-26T03:47:50.440Z,55.24
2019-02-26T03:50:19.558Z,55.22
2019-02-26T03:52:48.021Z,55.27
2019-02-26T03:55:18.739Z,55.31
2019-02-26T03:57:49.968Z,55.38
2019-02-26T04:00:19.956Z,55.45
2019-02-26T04:02:51.264Z,55.56
2019-02-26T04:05:19.159Z,55.80
2019-02-26T04:07:51.764Z,55.90
2019-02-26T04:10:18.008Z,55.97
2019-02-26T04:12:48.782Z,56.06
2019-02-26T04:15:24.265Z,56.12
2019-02-26T04:17:50.462Z,56.19
2019-02-26T04:20:18.945Z,56.20
2019-02-26T04:22:50.129Z,56.26
2019-02-26T04:25:37.363Z,56.30
2019-02-26T04:28:11.984Z,56.34
2019-02-26T04:30:56.493Z,56.30
2019-02-26T04:33:53.761Z,56.05
2019-02-26T04:36:28.217Z,56.32
2019-02-26T04:39:10.609Z,56.28
2019-02-26T04:41:53.395Z,56.31
2019-02-26T04:44:36.718Z,56.35
2019-02-26T04:47:06.601Z,56.40
2019-02-26T04:49:38.320Z,56.40
2019-02-26T04:52:07.700Z,56.40
2019-02-26T04:54:36.891Z,56.43
2019-02-26T04:57:05.892Z,56.42
2019-02-26T04:59:34.890Z,56.42
2019-02-26T05:02:04.764Z,56.50
2019-02-26T05:04:36.224Z,56.67
2019-02-26T05:07:05.150Z,56.83
2019-02-26T05:09:35.374Z,56.76
2019-02-26T05:12:04.148Z,56.69
2019-02-26T05:14:32.604Z,56.72
2019-02-26T05:17:01.036Z,56.82
2019-02-26T05:19:29.533Z,56.84
2019-02-26T05:21:59.375Z,56.82
2019-02-26T05:24:28.174Z,56.76
2019-02-26T05:26:56.654Z,56.70
2019-02-26T05:29:25.196Z,56.71
2019-02-26T05:31:55.526Z,56.73
2019-02-26T05:34:25.905Z,56.76
2019-02-26T05:36:53.948Z,56.92
2019-02-26T05:39:24.197Z,57.10
2019-02-26T05:41:54.960Z,57.17
2019-02-26T05:44:22.895Z,57.18
2019-02-26T05:46:54.006Z,57.36
2019-02-26T05:49:21.570Z,57.48
2019-02-26T05:51:50.018Z,57.52
2019-02-26T05:54:21.593Z,57.54
2019-02-26T05:56:49.815Z,57.36
2019-02-26T05:59:21.478Z,57.32
2019-02-26T06:01:51.941Z,57.21
2019-02-26T06:04:20.586Z,57.18
2019-02-26T06:06:53.240Z,57.17
2019-02-26T06:09:23.388Z,57.25
2019-02-26T06:11:51.503Z,57.37
2019-02-26T06:14:20.002Z,57.38
2019-02-26T06:16:50.647Z,57.37
2019-02-26T06:19:20.615Z,57.50
2019-02-26T06:21:49.779Z,57.44
2019-02-26T06:24:22.430Z,57.39
2019-02-26T06:26:49.727Z,57.45
2019-02-26T06:29:22.271Z,57.51
2019-02-26T06:31:49.427Z,57.48
2019-02-26T06:34:21.459Z,57.39
2019-02-26T06:36:48.874Z,57.62
2019-02-26T06:39:22.252Z,57.71
2019-02-26T06:41:49.519Z,57.65
2019-02-26T06:44:18.930Z,57.73
2019-02-26T06:46:47.405Z,57.59
2019-02-26T06:49:17.810Z,57.38
2019-02-26T06:51:47.535Z,57.20
2019-02-26T06:54:17.719Z,57.12
2019-02-26T06:56:49.057Z,57.06
2019-02-26T06:59:18.072Z,56.93
2019-02-26T07:01:46.511Z,56.82
2019-02-26T07:04:15.371Z,56.80
2019-02-26T07:06:43.806Z,56.66
2019-02-26T07:09:15.252Z,56.46
2019-02-26T07:11:42.507Z,56.26
2019-02-26T07:14:10.935Z,56.01
2019-02-26T07:16:40.379Z,55.82
2019-02-26T07:19:09.677Z,55.65
2019-02-26T07:21:40.656Z,55.56
2019-02-26T07:24:11.445Z,55.48
2019-02-26T07:26:41.730Z,55.37
2019-02-26T07:29:10.956Z,55.24
2019-02-26T07:31:40.046Z,55.17
2019-02-26T07:34:08.672Z,55.12
2019-02-26T07:36:37.193Z,55.10
2019-02-26T07:39:07.339Z,55.07
2019-02-26T07:41:35.849Z,55.00
2019-02-26T07:44:04.456Z,55.07
2019-02-26T07:46:35.447Z,55.01
2019-02-26T07:49:04.778Z,54.90
2019-02-26T07:51:36.365Z,54.76
2019-02-26T07:54:04.281Z,54.66
2019-02-26T07:56:32.921Z,54.65
2019-02-26T07:59:04.245Z,54.62
2019-02-26T08:01:31.477Z,54.52
2019-02-26T08:04:00.226Z,54.43
2019-02-26T08:06:29.305Z,54.29
2019-02-26T08:08:58.969Z,54.17
2019-02-26T08:11:27.404Z,54.04
2019-02-26T08:13:56.742Z,53.92
2019-02-26T08:16:27.706Z,53.75
2019-02-26T08:18:57.179Z,53.60
2019-02-26T08:21:27.220Z,53.29
2019-02-26T08:23:56.671Z,53.20
2019-02-26T08:26:26.755Z,53.07
2019-02-26T08:28:55.260Z,52.90
2019-02-26T08:31:25.547Z,52.71
2019-02-26T08:33:53.865Z,52.48
2019-02-26T08:36:22.399Z,52.21
2019-02-26T08:38:52.061Z,52.06
2019-02-26T08:41:20.716Z,51.93
2019-02-26T08:43:51.450Z,51.84
2019-02-26T08:46:19.557Z,51.63
2019-02-26T08:48:48.915Z,51.53
2019-02-26T08:51:18.991Z,51.36
2019-02-26T08:53:49.510Z,51.22
2019-02-26T08:56:18.954Z,51.21
2019-02-26T08:58:47.625Z,51.19
2019-02-26T09:01:16.163Z,51.16
2019-02-26T09:03:44.614Z,51.01
2019-02-26T09:06:14.012Z,51.00
2019-02-26T09:08:44.081Z,50.97
2019-02-26T09:11:14.135Z,50.90
2019-02-26T09:13:43.896Z,50.87
2019-02-26T09:16:12.467Z,50.87
2019-02-26T09:18:41.014Z,50.92
2019-02-26T09:21:10.287Z,50.85
2019-02-26T09:23:39.611Z,50.82
2019-02-26T09:26:08.227Z,50.64
2019-02-26T09:28:36.713Z,50.62
2019-02-26T09:31:06.791Z,50.55
2019-02-26T09:33:37.951Z,50.54
2019-02-26T09:36:10.536Z,50.46
2019-02-26T09:38:36.066Z,50.41
2019-02-26T09:41:04.545Z,50.32
2019-02-26T09:43:32.990Z,50.32
2019-02-26T09:46:03.867Z,50.40
2019-02-26T09:48:35.827Z,50.41
2019-02-26T09:51:07.568Z,50.40
2019-02-26T09:53:35.990Z,50.30
2019-02-26T09:56:04.439Z,50.26
2019-02-26T09:58:32.920Z,50.04
2019-02-26T10:01:01.441Z,50.00
2019-02-26T10:03:31.832Z,50.17
2019-02-26T10:06:00.351Z,50.15
2019-02-26T10:08:30.587Z,49.94
2019-02-26T10:11:00.337Z,50.01
2019-02-26T10:13:29.456Z,50.04
2019-02-26T10:15:59.248Z,49.70
2019-02-26T10:18:30.382Z,49.66
2019-02-26T10:20:58.522Z,49.74
2019-02-26T10:23:29.054Z,49.75
2019-02-26T10:25:57.824Z,49.64
2019-02-26T10:28:27.504Z,49.17
2019-02-26T10:30:56.894Z,49.29
2019-02-26T10:33:26.138Z,49.19
2019-02-26T10:35:54.664Z,49.18
2019-02-26T10:38:24.180Z,48.83
2019-02-26T10:40:56.196Z,48.85
2019-02-26T10:43:23.532Z,48.84
2019-02-26T10:45:52.940Z,48.95
2019-02-26T10:48:25.019Z,48.46
2019-02-26T10:50:52.634Z,48.27
2019-02-26T10:53:22.674Z,48.18
2019-02-26T10:55:51.661Z,48.54
2019-02-26T10:58:20.110Z,48.46
2019-02-26T11:00:52.698Z,48.39
2019-02-26T11:03:20.623Z,48.27
2019-02-26T11:05:51.989Z,48.11
2019-02-26T11:08:20.765Z,48.46
2019-02-26T11:10:50.286Z,48.41
2019-02-26T11:13:22.859Z,48.22
2019-02-26T11:15:51.777Z,48.32
2019-02-26T11:18:21.115Z,48.19
2019-02-26T11:20:52.866Z,48.12
2019-02-26T11:23:30.109Z,47.89
2019-02-26T11:25:50.757Z,48.16
2019-02-26T11:28:20.136Z,48.22
2019-02-26T11:30:51.588Z,48.27
2019-02-26T11:33:19.498Z,48.13
2019-02-26T11:35:49.408Z,47.99
2019-02-26T11:38:19.716Z,47.62
2019-02-26T11:40:48.343Z,46.54
2019-02-26T11:43:19.881Z,46.48
2019-02-26T11:45:47.077Z,46.77
2019-02-26T11:48:17.505Z,46.75
2019-02-26T11:50:45.780Z,46.89
2019-02-26T11:53:14.773Z,46.96
2019-02-26T11:55:43.304Z,46.84
2019-02-26T11:58:15.411Z,46.92
2019-02-26T12:00:52.406Z,47.09
2019-02-26T12:03:24.890Z,47.13
2019-02-26T12:05:53.532Z,47.11
2019-02-26T12:08:22.846Z,47.21
2019-02-26T12:10:52.387Z,47.34
2019-02-26T12:13:22.375Z,47.62
2019-02-26T12:15:51.103Z,47.23
2019-02-26T12:18:20.421Z,47.37
2019-02-26T12:20:49.854Z,47.08
2019-02-26T12:23:19.844Z,46.35
2019-02-26T12:25:49.914Z,46.58
2019-02-26T12:28:18.911Z,46.79
2019-02-26T12:30:47.460Z,47.03
2019-02-26T12:33:15.951Z,46.82
2019-02-26T12:35:44.451Z,46.82
2019-02-26T12:38:20.780Z,47.04
2019-02-26T12:40:46.373Z,46.70
2019-02-26T12:43:17.748Z,46.47
2019-02-26T12:45:43.503Z,46.32
2019-02-26T12:48:14.231Z,46.27
2019-02-26T12:50:42.119Z,46.48
2019-02-26T12:53:12.591Z,46.48
2019-02-26T12:55:42.284Z,46.61
2019-02-26T12:58:14.648Z,46.61
2019-02-26T13:00:43.252Z,46.36
2019-02-26T13:03:15.913Z,45.86
2019-02-26T13:05:45.676Z,45.94
2019-02-26T13:08:17.214Z,45.51
2019-02-26T13:10:47.389Z,45.30
2019-02-26T13:13:14.938Z,45.00
2019-02-26T13:15:43.490Z,45.37
2019-02-26T13:18:11.927Z,45.47
2019-02-26T13:20:40.402Z,45.51
2019-02-26T13:23:16.943Z,45.25
2019-02-26T13:25:39.056Z,45.11
2019-02-26T13:28:07.918Z,45.20
2019-02-26T13:30:36.396Z,45.49
2019-02-26T13:33:10.328Z,45.79
2019-02-26T13:35:35.077Z,45.61
2019-02-26T13:38:04.921Z,45.06
2019-02-26T13:40:38.538Z,45.12
2019-02-26T13:45:32.177Z,44.83
2019-02-26T13:48:01.564Z,44.95
2019-02-26T13:50:32.706Z,44.42
2019-02-26T13:53:01.266Z,44.53
2019-02-26T13:55:29.788Z,44.47
2019-02-26T13:57:58.278Z,43.43
2019-02-26T14:00:27.146Z,43.08
2019-02-26T14:02:55.649Z,43.37
2019-02-26T14:05:24.123Z,43.44
2019-02-26T14:07:52.755Z,43.55
2019-02-26T14:10:23.284Z,43.80
2019-02-26T14:12:51.998Z,43.54
2019-02-26T14:15:25.279Z,43.89
2019-02-26T14:17:53.938Z,43.62
2019-02-26T14:20:22.446Z,43.74
2019-02-26T14:22:50.971Z,43.72
2019-02-26T14:25:19.409Z,44.25
2019-02-26T14:27:48.068Z,44.73
2019-02-26T14:30:17.949Z,44.17
2019-02-26T14:32:46.409Z,43.13
2019-02-26T14:35:18.143Z,42.84
2019-02-26T14:37:46.746Z,42.94
2019-02-26T14:40:19.738Z,43.29
2019-02-26T14:42:48.262Z,43.31
2019-02-26T14:45:24.376Z,43.27
2019-02-26T14:47:52.910Z,43.45
2019-02-26T14:50:23.034Z,43.66
2019-02-26T14:52:51.536Z,43.84
2019-02-26T14:55:20.368Z,43.92
2019-02-26T14:57:48.918Z,43.54
2019-02-26T15:00:23.203Z,42.88
2019-02-26T15:02:52.111Z,42.73
2019-02-26T15:05:20.661Z,42.75
2019-02-26T15:07:49.254Z,42.40
2019-02-26T15:10:17.745Z,42.04
2019-02-26T15:12:46.236Z,40.96
2019-02-26T15:15:18.447Z,40.80
2019-02-26T15:17:47.005Z,40.55
2019-02-26T15:20:27.710Z,41.10
2019-02-26T15:22:56.215Z,40.86
2019-02-26T15:25:29.775Z,41.98
2019-02-26T15:28:04.493Z,42.89
2019-02-26T15:30:28.441Z,43.27
2019-02-26T15:32:56.983Z,44.08
2019-02-26T15:35:25.919Z,43.98
2019-02-26T15:37:54.377Z,43.66
2019-02-26T15:40:23.277Z,43.41
2019-02-26T15:42:52.975Z,43.59
2019-02-26T15:45:30.050Z,43.30
2019-02-26T15:47:58.600Z,43.46
2019-02-26T15:50:27.083Z,43.33
2019-02-26T15:52:55.595Z,43.82
2019-02-26T15:55:28.932Z,43.71
2019-02-26T15:58:02.950Z,44.05
2019-02-26T16:00:28.161Z,44.75
2019-02-26T16:02:59.491Z,45.09
2019-02-26T16:05:35.158Z,45.08
2019-02-26T16:08:04.266Z,45.12
2019-02-26T16:10:32.733Z,44.83
2019-02-26T16:13:06.908Z,44.79
2019-02-26T16:15:36.798Z,44.96
2019-02-26T16:18:05.257Z,44.87
2019-02-26T16:20:33.744Z,44.89
2019-02-26T16:23:02.189Z,44.75
2019-02-26T16:25:30.704Z,44.84
2019-02-26T16:27:59.176Z,45.00
2019-02-26T16:30:28.857Z,45.16
2019-02-26T16:32:57.311Z,45.92
2019-02-26T16:35:25.856Z,46.34
2019-02-26T16:37:54.285Z,46.77
2019-02-26T16:40:22.881Z,47.07
2019-02-26T16:42:51.419Z,47.16
2019-02-26T16:45:23.295Z,46.82
2019-02-26T16:47:51.862Z,46.66
2019-02-26T16:50:22.780Z,46.37
2019-02-26T16:52:51.223Z,46.37
2019-02-26T16:55:20.278Z,46.60
2019-02-26T16:57:49.033Z,46.91
2019-02-26T17:00:22.328Z,47.30
2019-02-26T17:02:50.976Z,47.64
2019-02-26T17:05:19.469Z,47.69
2019-02-26T17:07:47.966Z,47.83
2019-02-26T17:10:20.626Z,47.73
2019-02-26T17:13:01.788Z,47.64
2019-02-26T17:15:33.025Z,47.16
2019-02-26T17:18:01.511Z,47.02
2019-02-26T17:20:30.030Z,47.02
2019-02-26T17:22:58.513Z,47.31
2019-02-26T17:25:28.585Z,47.39
2019-02-26T17:27:57.166Z,47.55
2019-02-26T17:30:25.612Z,47.76
2019-02-26T17:32:54.224Z,47.78
2019-02-26T17:35:22.916Z,47.81
2019-02-26T17:37:51.428Z,48.00
2019-02-26T17:40:27.309Z,48.19
2019-02-26T17:42:55.798Z,48.20
2019-02-26T17:45:30.148Z,48.18
2019-02-26T17:47:58.658Z,48.23
2019-02-26T17:50:37.268Z,48.31
2019-02-26T17:53:06.286Z,48.43
2019-02-26T17:55:34.873Z,48.26
2019-02-26T17:58:03.306Z,48.11
2019-02-26T18:00:33.501Z,48.26
2019-02-26T18:03:06.433Z,48.45
2019-02-26T18:05:32.632Z,48.63
2019-02-26T18:08:01.393Z,48.65
2019-02-26T18:10:29.847Z,48.53
2019-02-26T18:12:58.336Z,48.72
2019-02-26T18:15:28.260Z,48.69
2019-02-26T18:17:56.734Z,48.59
2019-02-26T18:20:27.950Z,48.64
2019-02-26T18:22:59.851Z,48.73
2019-02-26T18:25:27.512Z,48.56
2019-02-26T18:27:57.074Z,48.60
2019-02-26T18:30:30.589Z,48.86
2019-02-26T18:32:59.414Z,48.99
2019-02-26T18:35:27.832Z,49.18
2019-02-26T18:37:56.274Z,49.39
2019-02-26T18:40:27.893Z,49.63
2019-02-26T18:42:55.195Z,49.75
2019-02-26T18:45:29.681Z,49.73
2019-02-26T18:47:57.509Z,49.75
2019-02-26T18:50:28.430Z,46.10
2019-02-26T18:52:58.145Z,49.86
2019-02-26T18:55:28.815Z,50.19
2019-02-26T18:57:57.244Z,50.39
2019-02-26T19:00:30.587Z,50.54
2019-02-26T19:02:59.010Z,50.68
2019-02-26T19:05:27.559Z,50.83
2019-02-26T19:07:56.037Z,51.02
2019-02-26T19:10:24.524Z,51.11
2019-02-26T19:12:53.066Z,51.14
2019-02-26T19:15:26.164Z,51.15
2019-02-26T19:17:56.971Z,51.12
2019-02-26T19:20:31.067Z,51.00
2019-02-26T19:22:59.655Z,50.97
2019-02-26T19:25:28.088Z,50.96
2019-02-26T19:27:56.562Z,51.05
2019-02-26T19:30:25.049Z,51.24
2019-02-26T19:32:53.487Z,51.37
2019-02-26T19:35:21.949Z,51.36
2019-02-26T19:37:55.227Z,51.35
2019-02-26T19:40:42.875Z,51.43
2019-02-26T19:43:11.394Z,51.48
2019-02-26T19:45:44.046Z,51.53
2019-02-26T19:48:10.013Z,51.67
2019-02-26T19:50:38.499Z,51.73
2019-02-26T19:53:06.996Z,51.72
2019-02-26T19:55:41.324Z,51.67
2019-02-26T19:58:09.781Z,51.75
2019-02-26T20:00:38.478Z,51.74
2019-02-26T20:03:07.060Z,51.85
2019-02-26T20:05:35.541Z,51.96
2019-02-26T20:08:05.290Z,52.03
2019-02-26T20:10:34.501Z,52.09
2019-02-26T20:13:04.131Z,52.17
2019-02-26T20:15:32.880Z,52.17
2019-02-26T20:18:01.358Z,52.16
2019-02-26T20:20:29.827Z,52.10
2019-02-26T20:23:00.049Z,52.00
2019-02-26T20:25:28.524Z,51.93
2019-02-26T20:28:04.819Z,51.98
2019-02-26T20:30:27.249Z,51.94
2019-02-26T20:32:55.776Z,51.93
2019-02-26T20:35:24.258Z,51.98
2019-02-26T20:37:53.039Z,51.98
2019-02-26T20:40:22.912Z,52.03
2019-02-26T20:42:51.491Z,52.17
2019-02-26T20:45:22.616Z,52.34
2019-02-26T20:47:51.377Z,52.36
2019-02-26T20:50:21.056Z,52.34
2019-02-26T20:52:50.025Z,52.36
2019-02-26T20:55:22.828Z,52.44
2019-02-26T20:57:51.305Z,52.51
2019-02-26T21:00:24.948Z,52.58
2019-02-26T21:02:50.767Z,52.63
2019-02-26T21:05:19.203Z,52.62
2019-02-26T21:07:49.518Z,52.52
2019-02-26T21:10:19.329Z,52.53
2019-02-26T21:12:49.322Z,52.55
2019-02-26T21:15:24.580Z,52.59
2019-02-26T21:17:52.988Z,52.54
2019-02-26T21:20:21.577Z,52.59
2019-02-26T21:22:50.040Z,52.62
2019-02-26T21:25:18.584Z,52.60
2019-02-26T21:27:47.006Z,52.62
2019-02-26T21:30:25.940Z,52.70
2019-02-26T21:32:57.820Z,52.76
2019-02-26T21:35:24.619Z,52.88
2019-02-26T21:37:53.054Z,52.97
2019-02-26T21:40:21.493Z,52.94
2019-02-26T21:42:50.014Z,52.97
2019-02-26T21:45:18.862Z,53.00
2019-02-26T21:47:47.491Z,53.04
2019-02-26T21:50:16.382Z,53.03
2019-02-26T21:52:59.191Z,53.02
2019-02-26T21:55:16.643Z,52.97
2019-02-26T21:57:45.323Z,52.97
2019-02-26T22:00:16.918Z,53.05
2019-02-26T22:02:45.397Z,53.16
2019-02-26T22:05:13.879Z,53.19
2019-02-26T22:07:42.360Z,53.24
2019-02-26T22:10:13.041Z,53.24
2019-02-26T22:12:41.563Z,53.25
2019-02-26T22:15:13.441Z,53.34
2019-02-26T22:17:41.958Z,53.40
2019-02-26T22:20:23.402Z,53.42
2019-02-26T22:22:43.784Z,53.54
2019-02-26T22:25:16.941Z,53.43
2019-02-26T22:27:43.640Z,53.37
2019-02-26T22:30:21.569Z,53.38
2019-02-26T22:32:47.855Z,53.45
2019-02-26T22:35:16.590Z,53.54
2019-02-26T22:37:45.051Z,53.60
2019-02-26T22:40:14.536Z,53.64
2019-02-26T22:42:43.273Z,53.65
2019-02-26T22:45:13.459Z,53.58
2019-02-26T22:47:43.924Z,53.52
2019-02-26T22:50:13.819Z,53.52
2019-02-26T22:52:42.293Z,53.58
2019-02-26T22:55:16.072Z,53.63
2019-02-26T22:57:43.119Z,53.65
2019-02-26T23:00:55.248Z,53.64
2019-02-26T23:03:24.050Z,53.68
2019-02-26T23:05:52.753Z,53.52
2019-02-26T23:08:21.278Z,53.42
2019-02-26T23:10:51.366Z,53.48
2019-02-26T23:13:20.142Z,53.56
2019-02-26T23:15:48.654Z,53.62
2019-02-26T23:18:18.609Z,53.65
2019-02-26T23:20:47.110Z,53.75
2019-02-26T23:23:15.841Z,53.87
2019-02-26T23:25:44.364Z,54.02
2019-02-26T23:28:12.942Z,54.12
2019-02-26T23:30:41.725Z,54.20
2019-02-26T23:33:10.186Z,54.12
2019-02-26T23:35:38.902Z,54.12
2019-02-26T23:38:08.358Z,54.11
2019-02-26T23:40:37.509Z,54.02
2019-02-26T23:43:06.039Z,54.04
2019-02-26T23:45:34.965Z,54.11
2019-02-26T23:48:07.757Z,54.23
2019-02-26T23:50:36.600Z,54.23
2019-02-26T23:53:05.219Z,54.29
2019-02-26T23:55:33.747Z,54.32
2019-02-26T23:58:02.462Z,54.33
